createdAt,value
2022-08-12T00:00:00.201Z,73.29
2022-08-12T00:02:46.107Z,72.97
2022-08-12T00:05:32.051Z,73.15
2022-08-12T00:08:17.582Z,73.32
2022-08-12T00:11:15.347Z,73.37
2022-08-12T00:14:01.243Z,73.39
2022-08-12T00:16:47.542Z,73.21
2022-08-12T00:19:33.845Z,73.44
2022-08-12T00:22:19.790Z,73.43
2022-08-12T00:25:05.828Z,73.38
2022-08-12T00:27:51.870Z,73.44
2022-08-12T00:30:37.541Z,73.42
2022-08-12T00:33:23.235Z,73.37
2022-08-12T00:36:17.799Z,73.61
2022-08-12T00:39:18.104Z,73.45
2022-08-12T00:42:04.751Z,73.49
2022-08-12T00:44:31.741Z,73.87
2022-08-12T00:47:01.202Z,73.63
2022-08-12T00:49:30.617Z,73.82
2022-08-12T00:52:10.067Z,73.64
2022-08-12T00:54:58.347Z,73.80
2022-08-12T00:57:37.452Z,73.92
2022-08-12T01:00:13.329Z,73.73
2022-08-12T01:02:42.492Z,74.15
2022-08-12T01:05:30.917Z,74.19
2022-08-12T01:08:16.530Z,74.09
2022-08-12T01:11:04.070Z,74.22
2022-08-12T01:13:35.111Z,74.26
2022-08-12T01:16:05.711Z,74.30
2022-08-12T01:18:35.511Z,74.60
2022-08-12T01:21:27.203Z,74.41
2022-08-12T01:24:32.196Z,74.24
2022-08-12T01:27:01.449Z,74.15
2022-08-12T01:29:33.020Z,74.33
2022-08-12T01:32:01.418Z,74.51
2022-08-12T01:34:36.356Z,74.64
2022-08-12T01:37:06.599Z,74.47
2022-08-12T01:40:33.881Z,74.34
2022-08-12T01:42:39.865Z,74.69
2022-08-12T01:45:07.574Z,74.78
2022-08-12T01:47:49.227Z,74.71
2022-08-12T01:50:31.229Z,74.52
2022-08-12T01:53:00.526Z,74.90
2022-08-12T01:55:32.542Z,74.85
2022-08-12T01:58:51.762Z,74.83
2022-08-12T02:01:21.036Z,74.85
2022-08-12T02:04:23.524Z,74.90
2022-08-12T02:07:27.989Z,74.86
2022-08-12T02:10:49.414Z,74.77
2022-08-12T02:13:42.115Z,74.76
2022-08-12T02:16:27.399Z,74.78
2022-08-12T02:19:22.789Z,74.96
2022-08-12T02:22:22.668Z,74.76
2022-08-12T02:24:51.020Z,74.79
2022-08-12T02:27:19.566Z,74.79
2022-08-12T02:29:47.651Z,74.99
2022-08-12T02:32:15.165Z,74.56
2022-08-12T02:34:44.573Z,74.92
2022-08-12T02:37:15.457Z,74.71
2022-08-12T02:39:48.906Z,74.73
2022-08-12T02:42:19.755Z,74.93
2022-08-12T02:44:51.410Z,75.16
2022-08-12T02:47:59.131Z,75.05
2022-08-12T02:50:10.993Z,74.55
2022-08-12T02:52:38.936Z,74.80
2022-08-12T02:55:28.936Z,74.81
2022-08-12T02:58:12.353Z,75.36
2022-08-12T03:00:43.354Z,75.13
2022-08-12T03:03:13.122Z,75.35
2022-08-12T03:06:00.038Z,75.20
2022-08-12T03:08:32.926Z,75.44
2022-08-12T03:11:06.238Z,75.10
2022-08-12T03:13:42.848Z,74.84
2022-08-12T03:16:09.977Z,75.11
2022-08-12T03:18:37.256Z,74.98
2022-08-12T03:21:04.373Z,75.19
2022-08-12T03:23:31.709Z,75.07
2022-08-12T03:26:02.849Z,75.15
2022-08-12T03:28:51.699Z,75.30
2022-08-12T03:31:24.923Z,75.00
2022-08-12T03:34:00.617Z,74.95
2022-08-12T03:36:31.477Z,75.24
2022-08-12T03:39:19.004Z,75.36
2022-08-12T03:41:58.489Z,75.04
2022-08-12T03:44:57.429Z,74.94
2022-08-12T03:48:08.760Z,74.63
2022-08-12T03:50:55.475Z,74.28
2022-08-12T03:53:46.363Z,73.72
2022-08-12T03:56:32.632Z,73.62
2022-08-12T03:59:19.478Z,73.22
2022-08-12T04:01:52.617Z,72.62
2022-08-12T04:04:23.501Z,71.96
2022-08-12T04:06:50.707Z,71.47
2022-08-12T04:09:21.168Z,70.77
2022-08-12T04:12:07.646Z,70.19
2022-08-12T04:14:37.799Z,69.47
2022-08-12T04:17:05.205Z,68.91
2022-08-12T04:19:32.257Z,68.38
2022-08-12T04:22:02.772Z,67.65
2022-08-12T04:24:35.586Z,67.03
2022-08-12T04:27:08.780Z,66.34
2022-08-12T04:30:32.913Z,65.86
2022-08-12T04:32:27.739Z,65.04
2022-08-12T04:34:55.366Z,64.73
2022-08-12T04:37:23.264Z,64.56
2022-08-12T04:39:51.054Z,64.47
2022-08-12T04:42:20.243Z,64.43
2022-08-12T04:44:48.210Z,64.42
2022-08-12T04:47:16.646Z,64.30
2022-08-12T04:49:45.566Z,64.34
2022-08-12T04:52:13.546Z,64.21
2022-08-12T04:54:40.879Z,64.10
2022-08-12T04:57:09.994Z,64.16
2022-08-12T04:59:46.918Z,64.09
2022-08-12T05:02:21.714Z,63.90
2022-08-12T05:04:56.288Z,63.95
2022-08-12T05:07:28.546Z,63.82
2022-08-12T05:10:00.733Z,64.03
2022-08-12T05:12:43.207Z,63.98
2022-08-12T05:15:27.471Z,63.93
2022-08-12T05:18:00.237Z,63.89
2022-08-12T05:20:29.879Z,63.84
2022-08-12T05:23:17.582Z,63.74
2022-08-12T05:25:45.921Z,63.66
2022-08-12T05:28:14.163Z,63.84
2022-08-12T05:30:42.785Z,63.72
2022-08-12T05:33:11.578Z,63.79
2022-08-12T05:35:41.767Z,63.67
2022-08-12T05:38:32.549Z,63.63
2022-08-12T05:41:00.697Z,63.59
2022-08-12T05:43:28.880Z,63.55
2022-08-12T05:45:56.247Z,63.48
2022-08-12T05:48:23.539Z,63.49
2022-08-12T05:50:50.699Z,63.43
2022-08-12T05:53:17.637Z,63.33
2022-08-12T05:55:44.727Z,63.21
2022-08-12T05:58:11.720Z,63.02
2022-08-12T06:00:38.873Z,62.83
2022-08-12T06:03:06.893Z,62.89
2022-08-12T06:05:43.045Z,62.59
2022-08-12T06:08:21.821Z,62.50
2022-08-12T06:10:52.059Z,62.22
2022-08-12T06:13:28.554Z,62.01
2022-08-12T06:16:07.739Z,61.95
2022-08-12T06:18:35.158Z,61.64
2022-08-12T06:21:02.474Z,61.43
2022-08-12T06:23:30.580Z,60.96
2022-08-12T06:25:58.627Z,60.82
2022-08-12T06:28:26.153Z,60.75
2022-08-12T06:31:22.147Z,60.22
2022-08-12T06:33:54.973Z,60.06
2022-08-12T06:36:29.475Z,59.51
2022-08-12T06:38:57.368Z,59.17
2022-08-12T06:42:30.604Z,59.06
2022-08-12T06:44:29.919Z,58.50
2022-08-12T06:46:58.541Z,58.30
2022-08-12T06:49:26.071Z,58.04
2022-08-12T06:51:56.913Z,57.77
2022-08-12T06:54:27.055Z,57.24
2022-08-12T06:57:04.857Z,56.82
2022-08-12T06:59:51.133Z,56.38
2022-08-12T07:02:21.139Z,55.83
2022-08-12T07:04:50.877Z,55.17
2022-08-12T07:07:18.597Z,54.89
2022-08-12T07:10:04.724Z,54.26
2022-08-12T07:12:32.702Z,53.72
2022-08-12T07:15:01.981Z,53.27
2022-08-12T07:17:37.851Z,52.60
2022-08-12T07:20:29.838Z,52.20
2022-08-12T07:22:58.162Z,51.66
2022-08-12T07:25:41.559Z,51.15
2022-08-12T07:28:29.472Z,50.32
2022-08-12T07:30:58.053Z,50.31
2022-08-12T07:33:28.254Z,49.55
2022-08-12T07:35:57.532Z,49.26
2022-08-12T07:38:33.705Z,48.43
2022-08-12T07:41:04.020Z,48.30
2022-08-12T07:43:31.701Z,47.69
2022-08-12T07:46:00.324Z,47.29
2022-08-12T07:48:27.914Z,47.14
2022-08-12T07:50:55.163Z,46.73
2022-08-12T07:53:22.410Z,46.09
2022-08-12T07:55:49.571Z,45.57
2022-08-12T07:58:16.524Z,45.26
2022-08-12T08:00:44.593Z,44.61
2022-08-12T08:03:13.414Z,44.31
2022-08-12T08:05:46.504Z,43.65
2022-08-12T08:08:18.582Z,43.30
2022-08-12T08:10:46.373Z,42.55
2022-08-12T08:13:13.662Z,42.33
2022-08-12T08:18:28.943Z,41.90
2022-08-12T08:20:56.812Z,41.40
2022-08-12T08:23:46.395Z,41.26
2022-08-12T08:26:15.737Z,40.98
2022-08-12T08:28:44.172Z,40.68
2022-08-12T08:31:13.436Z,40.53
2022-08-12T08:34:05.250Z,40.27
2022-08-12T08:36:28.967Z,40.09
2022-08-12T08:38:58.686Z,40.27
2022-08-12T08:42:19.187Z,40.02
2022-08-12T08:44:36.427Z,39.80
2022-08-12T08:47:05.670Z,39.59
2022-08-12T08:49:33.011Z,39.38
2022-08-12T08:52:04.603Z,39.25
2022-08-12T08:54:33.627Z,39.28
2022-08-12T08:57:01.953Z,39.04
2022-08-12T08:59:29.061Z,38.63
2022-08-12T09:01:56.720Z,38.58
2022-08-12T09:05:13.272Z,38.96
2022-08-12T09:07:17.852Z,38.73
2022-08-12T09:10:02.047Z,38.40
2022-08-12T09:15:41.692Z,37.95
2022-08-12T09:18:11.781Z,37.98
2022-08-12T09:20:40.523Z,38.05
2022-08-12T09:26:04.333Z,37.62
2022-08-12T09:28:37.327Z,37.30
2022-08-12T09:32:02.652Z,37.22
2022-08-12T09:34:27.874Z,37.18
2022-08-12T09:36:57.722Z,37.04
2022-08-12T09:40:05.720Z,36.63
2022-08-12T09:42:43.409Z,36.53
2022-08-12T09:46:11.466Z,36.43
2022-08-12T09:48:20.072Z,36.24
2022-08-12T09:50:51.650Z,35.86
2022-08-12T09:53:29.260Z,35.78
2022-08-12T09:56:07.168Z,35.74
2022-08-12T09:58:59.997Z,35.98
2022-08-12T10:01:35.392Z,35.68
2022-08-12T10:04:19.097Z,35.43
2022-08-12T10:06:54.326Z,35.03
2022-08-12T10:09:28.435Z,35.06
2022-08-12T10:12:31.547Z,34.64
2022-08-12T10:15:02.143Z,34.70
2022-08-12T10:17:29.647Z,34.25
2022-08-12T10:19:59.731Z,34.05
2022-08-12T10:22:36.447Z,34.25
2022-08-12T10:26:18.969Z,34.76
2022-08-12T10:28:33.283Z,35.21
2022-08-12T10:31:01.165Z,35.56
2022-08-12T10:33:31.982Z,35.60
2022-08-12T10:36:02.018Z,35.85
2022-08-12T10:38:37.559Z,35.95
2022-08-12T10:41:57.279Z,35.70
2022-08-12T10:44:16.887Z,36.15
2022-08-12T10:46:49.861Z,36.03
2022-08-12T10:50:03.693Z,36.16
2022-08-12T10:52:34.939Z,36.05
2022-08-12T10:54:56.250Z,36.46
2022-08-12T10:58:12.731Z,36.64
2022-08-12T11:00:34.859Z,36.60
2022-08-12T11:04:26.257Z,36.36
2022-08-12T11:07:10.116Z,36.78
2022-08-12T11:08:43.517Z,36.57
2022-08-12T11:12:07.502Z,36.88
2022-08-12T11:14:05.891Z,36.82
2022-08-12T11:16:33.406Z,36.52
2022-08-12T11:19:02.936Z,36.87
2022-08-12T11:21:56.308Z,36.50
2022-08-12T11:24:31.873Z,36.34
2022-08-12T11:27:01.352Z,36.39
2022-08-12T11:30:05.477Z,36.41
2022-08-12T11:32:16.952Z,36.63
2022-08-12T11:34:51.716Z,36.66
2022-08-12T11:37:26.480Z,36.30
2022-08-12T11:42:39.640Z,36.54
2022-08-12T11:45:16.894Z,36.43
2022-08-12T11:47:44.492Z,36.61
2022-08-12T11:50:19.248Z,36.42
2022-08-12T11:52:56.392Z,36.39
2022-08-12T11:55:25.402Z,36.51
2022-08-12T11:59:02.764Z,36.35
2022-08-12T12:03:44.154Z,36.84
2022-08-12T12:06:18.017Z,36.61
2022-08-12T12:08:51.063Z,36.95
2022-08-12T12:11:20.245Z,36.95
2022-08-12T12:14:06.604Z,36.68
2022-08-12T12:16:38.012Z,36.73
2022-08-12T12:19:05.718Z,37.02
2022-08-12T12:21:47.845Z,36.96
2022-08-12T12:24:21.805Z,37.00
2022-08-12T12:27:00.893Z,37.12
2022-08-12T12:30:13.750Z,37.30
2022-08-12T12:32:17.294Z,37.43
2022-08-12T12:35:14.474Z,37.19
2022-08-12T12:37:59.037Z,37.48
2022-08-12T12:40:21.570Z,37.55
2022-08-12T12:42:55.334Z,37.42
2022-08-12T12:45:26.316Z,37.47
2022-08-12T12:48:07.965Z,37.59
2022-08-12T12:51:48.907Z,37.36
2022-08-12T12:54:09.987Z,37.38
2022-08-12T12:56:40.623Z,37.85
2022-08-12T12:59:55.434Z,37.42
2022-08-12T13:01:55.548Z,37.60
2022-08-12T13:04:22.790Z,37.58
2022-08-12T13:06:52.280Z,37.45
2022-08-12T13:09:22.310Z,37.55
2022-08-12T13:11:53.486Z,37.55
2022-08-12T13:14:27.969Z,37.49
2022-08-12T13:17:02.701Z,37.93
2022-08-12T13:19:42.264Z,37.54
2022-08-12T13:22:23.624Z,37.52
2022-08-12T13:24:56.220Z,37.61
2022-08-12T13:27:34.548Z,37.67
2022-08-12T13:30:06.750Z,38.08
2022-08-12T13:32:37.995Z,38.02
2022-08-12T13:35:19.745Z,38.20
2022-08-12T13:37:55.851Z,37.89
2022-08-12T13:40:33.462Z,38.20
2022-08-12T13:43:02.121Z,38.04
2022-08-12T13:45:31.231Z,38.42
2022-08-12T13:48:05.540Z,38.34
2022-08-12T13:50:37.553Z,38.15
2022-08-12T13:53:24.322Z,38.08
2022-08-12T13:55:59.382Z,38.47
2022-08-12T13:58:28.348Z,38.61
2022-08-12T14:00:58.390Z,38.49
2022-08-12T14:03:28.449Z,38.29
2022-08-12T14:06:15.199Z,38.55
2022-08-12T14:08:43.718Z,38.62
2022-08-12T14:11:12.352Z,38.85
2022-08-12T14:14:05.176Z,38.93
2022-08-12T14:16:46.606Z,38.93
2022-08-12T14:19:22.862Z,38.97
2022-08-12T14:22:01.506Z,38.77
2022-08-12T14:24:41.097Z,38.74
2022-08-12T14:27:10.601Z,38.82
2022-08-12T14:30:06.193Z,38.96
2022-08-12T14:32:35.508Z,39.11
2022-08-12T14:35:09.511Z,39.04
2022-08-12T14:37:56.604Z,38.98
2022-08-12T14:40:30.065Z,38.72
2022-08-12T14:43:00.217Z,38.80
2022-08-12T14:45:44.368Z,38.76
2022-08-12T14:48:19.430Z,38.68
2022-08-12T14:51:02.847Z,38.65
2022-08-12T14:59:56.864Z,38.79
2022-08-12T15:02:22.061Z,38.99
2022-08-12T15:04:58.856Z,38.92
2022-08-12T15:07:34.168Z,39.00
2022-08-12T15:10:32.015Z,39.21
2022-08-12T15:13:07.178Z,39.15
2022-08-12T15:15:38.606Z,39.35
2022-08-12T15:18:21.660Z,39.47
2022-08-12T15:20:54.726Z,39.59
2022-08-12T15:23:23.120Z,39.92
2022-08-12T15:25:59.837Z,40.13
2022-08-12T15:28:34.809Z,40.08
2022-08-12T15:31:03.389Z,40.29
2022-08-12T15:33:52.735Z,40.66
2022-08-12T15:36:50.244Z,40.55
2022-08-12T15:39:16.720Z,40.69
2022-08-12T15:41:49.332Z,40.64
2022-08-12T15:44:42.060Z,40.62
2022-08-12T15:47:05.268Z,40.71
2022-08-12T15:49:54.357Z,40.84
2022-08-12T15:52:27.550Z,40.92
2022-08-12T15:54:58.671Z,40.65
2022-08-12T15:57:27.383Z,40.65
2022-08-12T16:00:06.647Z,40.73
2022-08-12T16:02:50.165Z,40.81
2022-08-12T16:06:16.943Z,40.90
2022-08-12T16:08:15.212Z,41.24
2022-08-12T16:10:44.842Z,41.29
2022-08-12T16:13:14.683Z,41.42
2022-08-12T16:15:51.065Z,41.59
2022-08-12T16:18:37.264Z,42.09
2022-08-12T16:21:09.086Z,42.13
2022-08-12T16:23:55.321Z,42.58
2022-08-12T16:26:27.386Z,42.69
2022-08-12T16:29:15.155Z,43.15
2022-08-12T16:31:44.549Z,43.52
2022-08-12T16:34:25.446Z,43.81
2022-08-12T16:37:13.239Z,44.14
2022-08-12T16:39:59.792Z,44.33
2022-08-12T16:42:28.856Z,44.72
2022-08-12T16:45:01.879Z,45.07
2022-08-12T16:47:57.503Z,45.19
2022-08-12T16:50:22.806Z,45.46
2022-08-12T16:52:59.787Z,45.46
2022-08-12T16:55:42.283Z,45.90
2022-08-12T16:58:28.327Z,46.05
2022-08-12T17:00:58.810Z,46.61
2022-08-12T17:03:30.602Z,46.83
2022-08-12T17:05:57.697Z,47.02
2022-08-12T17:08:29.001Z,47.06
2022-08-12T17:10:56.602Z,47.05
2022-08-12T17:13:26.373Z,47.40
2022-08-12T17:16:04.934Z,47.83
2022-08-12T17:18:43.944Z,48.24
2022-08-12T17:21:40.124Z,48.14
2022-08-12T17:24:10.565Z,48.41
2022-08-12T17:26:45.028Z,48.85
2022-08-12T17:29:31.952Z,48.97
2022-08-12T17:32:08.772Z,49.47
2022-08-12T17:34:55.048Z,49.94
2022-08-12T17:37:22.295Z,50.01
2022-08-12T17:40:12.003Z,50.59
2022-08-12T17:42:42.301Z,50.86
2022-08-12T17:45:18.217Z,51.01
2022-08-12T17:48:00.773Z,51.58
2022-08-12T17:50:32.433Z,51.56
2022-08-12T17:53:02.871Z,51.93
2022-08-12T17:55:43.663Z,52.40
2022-08-12T17:58:21.619Z,52.72
2022-08-12T18:01:03.402Z,53.01
2022-08-12T18:04:04.231Z,53.24
2022-08-12T18:06:17.987Z,53.44
2022-08-12T18:08:54.436Z,53.64
2022-08-12T18:12:06.270Z,53.82
2022-08-12T18:14:29.994Z,54.47
2022-08-12T18:17:00.642Z,54.56
2022-08-12T18:19:34.266Z,54.77
2022-08-12T18:22:22.176Z,54.86
2022-08-12T18:25:04.945Z,55.14
2022-08-12T18:27:44.762Z,55.38
2022-08-12T18:30:16.442Z,55.56
2022-08-12T18:33:03.461Z,55.84
2022-08-12T18:35:46.947Z,55.92
2022-08-12T18:38:21.900Z,56.12
2022-08-12T18:41:25.720Z,56.19
2022-08-12T18:44:09.700Z,56.47
2022-08-12T18:46:54.328Z,56.60
2022-08-12T18:49:37.956Z,56.70
2022-08-12T18:52:07.948Z,57.00
2022-08-12T18:54:41.262Z,57.13
2022-08-12T18:57:20.009Z,57.36
2022-08-12T19:00:06.515Z,57.51
2022-08-12T19:02:39.950Z,57.62
2022-08-12T19:05:12.306Z,57.88
2022-08-12T19:07:49.470Z,58.00
2022-08-12T19:10:23.009Z,58.11
2022-08-12T19:13:10.596Z,58.22
2022-08-12T19:15:43.173Z,58.38
2022-08-12T19:18:13.322Z,58.50
2022-08-12T19:20:41.851Z,58.62
2022-08-12T19:23:16.801Z,58.82
2022-08-12T19:26:00.715Z,58.97
2022-08-12T19:28:35.173Z,59.02
2022-08-12T19:31:56.502Z,59.21
2022-08-12T19:37:26.863Z,59.54
2022-08-12T19:40:10.317Z,59.55
2022-08-12T19:42:57.735Z,59.88
2022-08-12T19:45:41.936Z,59.81
2022-08-12T19:48:16.583Z,59.92
2022-08-12T19:50:50.140Z,60.04
2022-08-12T19:53:22.898Z,60.13
2022-08-12T19:55:55.149Z,60.19
2022-08-12T19:58:23.428Z,60.32
2022-08-12T20:00:54.381Z,60.35
2022-08-12T20:03:39.281Z,60.45
2022-08-12T20:06:21.539Z,60.57
2022-08-12T20:08:55.886Z,60.70
2022-08-12T20:12:11.677Z,60.96
2022-08-12T20:14:19.507Z,60.90
2022-08-12T20:16:54.403Z,60.86
2022-08-12T20:19:52.770Z,60.97
2022-08-12T20:22:33.313Z,61.09
2022-08-12T20:25:07.229Z,61.16
2022-08-12T20:28:04.853Z,61.04
2022-08-12T20:30:52.903Z,61.19
2022-08-12T20:33:17.595Z,61.23
2022-08-12T20:36:13.006Z,61.35
2022-08-12T20:38:38.192Z,61.33
2022-08-12T20:41:17.575Z,61.49
2022-08-12T20:43:51.762Z,61.57
2022-08-12T20:46:19.991Z,61.75
2022-08-12T20:48:55.235Z,61.91
2022-08-12T20:51:27.596Z,62.03
2022-08-12T20:53:58.770Z,62.00
2022-08-12T20:56:34.341Z,62.17
2022-08-12T20:59:07.227Z,62.34
2022-08-12T21:01:47.022Z,62.47
2022-08-12T21:04:35.824Z,62.49
2022-08-12T21:07:09.125Z,62.75
2022-08-12T21:09:42.504Z,62.99
2022-08-12T21:12:31.340Z,62.93
2022-08-12T21:15:17.542Z,63.21
2022-08-12T21:18:11.280Z,63.38
2022-08-12T21:20:50.300Z,63.85
2022-08-12T21:23:21.653Z,63.62
2022-08-12T21:25:51.255Z,63.78
2022-08-12T21:28:22.433Z,64.08
2022-08-12T21:32:34.395Z,64.09
2022-08-12T21:33:58.803Z,64.26
2022-08-12T21:36:34.869Z,64.50
2022-08-12T21:39:18.357Z,64.61
2022-08-12T21:41:50.886Z,64.77
2022-08-12T21:44:24.288Z,64.91
2022-08-12T21:47:21.652Z,65.09
2022-08-12T21:50:02.373Z,65.06
2022-08-12T21:52:35.689Z,65.18
2022-08-12T21:55:08.385Z,65.34
2022-08-12T21:57:50.868Z,65.39
2022-08-12T22:00:31.956Z,65.48
2022-08-12T22:04:02.161Z,65.61
2022-08-12T22:06:31.553Z,65.60
2022-08-12T22:09:16.437Z,65.82
2022-08-12T22:11:56.662Z,65.77
2022-08-12T22:14:30.198Z,66.07
2022-08-12T22:16:58.692Z,66.15
2022-08-12T22:19:27.857Z,66.28
2022-08-12T22:21:58.784Z,66.41
2022-08-12T22:24:30.544Z,66.55
2022-08-12T22:27:18.083Z,66.71
2022-08-12T22:30:08.453Z,66.89
2022-08-12T22:32:44.824Z,67.01
2022-08-12T22:35:47.282Z,67.00
2022-08-12T22:38:20.038Z,67.21
2022-08-12T22:40:52.404Z,67.26
2022-08-12T22:44:00.551Z,67.33
2022-08-12T22:46:52.097Z,67.68
2022-08-12T22:49:49.067Z,67.71
2022-08-12T22:52:14.247Z,67.81
2022-08-12T22:55:00.276Z,67.99
2022-08-12T22:57:53.317Z,68.05
2022-08-12T23:00:23.980Z,68.25
2022-08-12T23:02:52.077Z,68.32
2022-08-12T23:05:36.693Z,68.41
2022-08-12T23:08:13.892Z,68.58
2022-08-12T23:10:46.420Z,68.54
2022-08-12T23:13:42.267Z,68.62
2022-08-12T23:16:10.007Z,68.93
2022-08-12T23:18:48.113Z,69.02
2022-08-12T23:21:18.639Z,69.12
2022-08-12T23:24:09.375Z,69.23
2022-08-12T23:26:56.319Z,69.26
2022-08-12T23:29:29.803Z,69.38
2022-08-12T23:32:10.961Z,69.45
2022-08-12T23:34:37.913Z,69.53
2022-08-12T23:37:06.480Z,69.67
2022-08-12T23:40:13.500Z,69.78
2022-08-12T23:42:22.045Z,69.67
2022-08-12T23:45:03.469Z,69.84
2022-08-12T23:47:38.178Z,69.89
2022-08-12T23:50:16.149Z,69.96
2022-08-12T23:52:46.549Z,70.16
2022-08-12T23:55:25.098Z,70.17
2022-08-12T23:58:20.692Z,70.13
